<?xml version='1.0' encoding='UTF-8'?>
<gpx version="1.1" creator="https://www.komoot.de" xmlns="http://www.topografix.com/GPX/1/1" xmlns:xsi="http://www.w3.org/2001/XMLSchema-instance" xsi:schemaLocation="http://www.topografix.com/GPX/1/1 http://www.topografix.com/GPX/1/1/gpx.xsd">
  <metadata>
    <name>Winterswijk Mesozoïcum</name>
    <author>
      <link href="https://www.komoot.de">
        <text>komoot</text>
        <type>text/html</type>
      </link>
    </author>
  </metadata>
  <trk>
    <name>Winterswijk Mesozoïcum</name>
    <trkseg>
      <trkpt lat="51.967182" lon="6.784437">
        <ele>37.735599</ele>
        <time>2020-10-02T17:48:36.511Z</time>
      </trkpt>
      <trkpt lat="51.967385" lon="6.784568">
        <ele>37.735599</ele>
        <time>2020-10-02T17:48:51.660Z</time>
      </trkpt>
      <trkpt lat="51.967322" lon="6.785190">
        <ele>37.735599</ele>
        <time>2020-10-02T17:49:00.684Z</time>
      </trkpt>
      <trkpt lat="51.967084" lon="6.788495">
        <ele>40.590475</ele>
        <time>2020-10-02T17:49:59.274Z</time>
      </trkpt>
      <trkpt lat="51.966847" lon="6.791873">
        <ele>44.786167</ele>
        <time>2020-10-02T17:51:06.279Z</time>
      </trkpt>
      <trkpt lat="51.966842" lon="6.791939">
        <ele>44.823630</ele>
        <time>2020-10-02T17:51:06.995Z</time>
      </trkpt>
      <trkpt lat="51.966697" lon="6.793983">
        <ele>45.982798</ele>
        <time>2020-10-02T17:51:38.756Z</time>
      </trkpt>
      <trkpt lat="51.966824" lon="6.794902">
        <ele>46.512325</ele>
        <time>2020-10-02T17:51:52.047Z</time>
      </trkpt>
      <trkpt lat="51.966787" lon="6.795259">
        <ele>46.715576</ele>
        <time>2020-10-02T17:51:57.445Z</time>
      </trkpt>
      <trkpt lat="51.966655" lon="6.795608">
        <ele>46.945495</ele>
        <time>2020-10-02T17:52:03.506Z</time>
      </trkpt>
      <trkpt lat="51.966384" lon="6.796019">
        <ele>47.283478</ele>
        <time>2020-10-02T17:52:13.362Z</time>
      </trkpt>
      <trkpt lat="51.966231" lon="6.796173">
        <ele>47.447534</ele>
        <time>2020-10-02T17:52:18.147Z</time>
      </trkpt>
      <trkpt lat="51.966185" lon="6.796220">
        <ele>47.497067</ele>
        <time>2020-10-02T17:52:19.792Z</time>
      </trkpt>
      <trkpt lat="51.966391" lon="6.796391">
        <ele>47.707913</ele>
        <time>2020-10-02T17:52:26.340Z</time>
      </trkpt>
      <trkpt lat="51.966401" lon="6.796526">
        <ele>47.784254</ele>
        <time>2020-10-02T17:52:28.733Z</time>
      </trkpt>
      <trkpt lat="51.966405" lon="6.796576">
        <ele>47.812562</ele>
        <time>2020-10-02T17:52:29.679Z</time>
      </trkpt>
      <trkpt lat="51.966412" lon="6.796670">
        <ele>47.859506</ele>
        <time>2020-10-02T17:52:31.619Z</time>
      </trkpt>
      <trkpt lat="51.966457" lon="6.797382">
        <ele>48.175263</ele>
        <time>2020-10-02T17:52:44.324Z</time>
      </trkpt>
      <trkpt lat="51.966477" lon="6.797502">
        <ele>48.230105</ele>
        <time>2020-10-02T17:52:46.212Z</time>
      </trkpt>
      <trkpt lat="51.966486" lon="6.797520">
        <ele>48.240332</ele>
        <time>2020-10-02T17:52:46.542Z</time>
      </trkpt>
      <trkpt lat="51.966517" lon="6.797582">
        <ele>48.275558</ele>
        <time>2020-10-02T17:52:47.988Z</time>
      </trkpt>
      <trkpt lat="51.966565" lon="6.797641">
        <ele>48.318671</ele>
        <time>2020-10-02T17:52:49.596Z</time>
      </trkpt>
      <trkpt lat="51.966606" lon="6.797680">
        <ele>48.352699</ele>
        <time>2020-10-02T17:52:51.015Z</time>
      </trkpt>
      <trkpt lat="51.966677" lon="6.797712">
        <ele>48.405461</ele>
        <time>2020-10-02T17:52:53.377Z</time>
      </trkpt>
      <trkpt lat="51.966797" lon="6.797765">
        <ele>48.494509</ele>
        <time>2020-10-02T17:52:56.167Z</time>
      </trkpt>
      <trkpt lat="51.966977" lon="6.797802">
        <ele>48.624424</ele>
        <time>2020-10-02T17:53:01.021Z</time>
      </trkpt>
      <trkpt lat="51.967897" lon="6.797902">
        <ele>48.752417</ele>
        <time>2020-10-02T17:53:21.445Z</time>
      </trkpt>
      <trkpt lat="51.968057" lon="6.797952">
        <ele>48.481129</ele>
        <time>2020-10-02T17:53:24.990Z</time>
      </trkpt>
      <trkpt lat="51.969627" lon="6.799022">
        <ele>45.616126</ele>
        <time>2020-10-02T17:53:54.463Z</time>
      </trkpt>
      <trkpt lat="51.970063" lon="6.799279">
        <ele>44.796053</ele>
        <time>2020-10-02T17:54:02.431Z</time>
      </trkpt>
      <trkpt lat="51.970145" lon="6.799328">
        <ele>44.641571</ele>
        <time>2020-10-02T17:54:03.853Z</time>
      </trkpt>
      <trkpt lat="51.970560" lon="6.797180">
        <ele>42.859634</ele>
        <time>2020-10-02T17:54:39.259Z</time>
      </trkpt>
      <trkpt lat="51.970730" lon="6.795600">
        <ele>42.651967</ele>
        <time>2020-10-02T17:55:09.008Z</time>
      </trkpt>
      <trkpt lat="51.971136" lon="6.794131">
        <ele>42.517081</ele>
        <time>2020-10-02T17:55:39.138Z</time>
      </trkpt>
      <trkpt lat="51.971350" lon="6.793360">
        <ele>42.470280</ele>
        <time>2020-10-02T17:55:51.179Z</time>
      </trkpt>
      <trkpt lat="51.971630" lon="6.792430">
        <ele>42.412994</ele>
        <time>2020-10-02T17:56:05.300Z</time>
      </trkpt>
      <trkpt lat="51.971940" lon="6.790700">
        <ele>41.996259</ele>
        <time>2020-10-02T17:56:28.713Z</time>
      </trkpt>
      <trkpt lat="51.972170" lon="6.789950">
        <ele>41.798586</ele>
        <time>2020-10-02T17:56:40.211Z</time>
      </trkpt>
      <trkpt lat="51.972247" lon="6.789802">
        <ele>41.752879</ele>
        <time>2020-10-02T17:56:42.745Z</time>
      </trkpt>
      <trkpt lat="51.972300" lon="6.789700">
        <ele>41.721606</ele>
        <time>2020-10-02T17:56:45.318Z</time>
      </trkpt>
      <trkpt lat="51.972630" lon="6.789130">
        <ele>41.794080</ele>
        <time>2020-10-02T17:56:59.626Z</time>
      </trkpt>
      <trkpt lat="51.973180" lon="6.787480">
        <ele>41.967899</ele>
        <time>2020-10-02T17:57:34.827Z</time>
      </trkpt>
      <trkpt lat="51.973370" lon="6.787030">
        <ele>41.971698</ele>
        <time>2020-10-02T17:57:45.159Z</time>
      </trkpt>
      <trkpt lat="51.974570" lon="6.785300">
        <ele>41.785384</ele>
        <time>2020-10-02T17:58:31.423Z</time>
      </trkpt>
      <trkpt lat="51.975522" lon="6.782834">
        <ele>40.866172</ele>
        <time>2020-10-02T17:59:20.150Z</time>
      </trkpt>
      <trkpt lat="51.975886" lon="6.781455">
        <ele>40.809998</ele>
        <time>2020-10-02T17:59:46.314Z</time>
      </trkpt>
      <trkpt lat="51.976050" lon="6.780910">
        <ele>40.791875</ele>
        <time>2020-10-02T17:59:57.298Z</time>
      </trkpt>
      <trkpt lat="51.976259" lon="6.780239">
        <ele>40.769409</ele>
        <time>2020-10-02T18:00:11.337Z</time>
      </trkpt>
      <trkpt lat="51.976908" lon="6.778674">
        <ele>41.296373</ele>
        <time>2020-10-02T18:00:47.771Z</time>
      </trkpt>
      <trkpt lat="51.977259" lon="6.777846">
        <ele>41.594609</ele>
        <time>2020-10-02T18:01:07.279Z</time>
      </trkpt>
      <trkpt lat="51.977841" lon="6.776414">
        <ele>42.200862</ele>
        <time>2020-10-02T18:01:40.817Z</time>
      </trkpt>
      <trkpt lat="51.979022" lon="6.774389">
        <ele>42.866542</ele>
        <time>2020-10-02T18:02:35.017Z</time>
      </trkpt>
      <trkpt lat="51.979297" lon="6.774318">
        <ele>42.925075</ele>
        <time>2020-10-02T18:02:43.931Z</time>
      </trkpt>
      <trkpt lat="51.979307" lon="6.774433">
        <ele>42.940113</ele>
        <time>2020-10-02T18:02:45.291Z</time>
      </trkpt>
      <trkpt lat="51.979550" lon="6.777500">
        <ele>42.304531</ele>
        <time>2020-10-02T18:03:24.931Z</time>
      </trkpt>
      <trkpt lat="51.979561" lon="6.777662">
        <ele>42.248744</ele>
        <time>2020-10-02T18:03:26.900Z</time>
      </trkpt>
      <trkpt lat="51.979567" lon="6.777661">
        <ele>42.245392</ele>
        <time>2020-10-02T18:03:27.041Z</time>
      </trkpt>
      <trkpt lat="51.979743" lon="6.777621">
        <ele>42.146633</ele>
        <time>2020-10-02T18:03:33.173Z</time>
      </trkpt>
      <trkpt lat="51.981748" lon="6.777117">
        <ele>40.618473</ele>
        <time>2020-10-02T18:04:42.865Z</time>
      </trkpt>
      <trkpt lat="51.983356" lon="6.776544">
        <ele>39.903961</ele>
        <time>2020-10-02T18:05:41.436Z</time>
      </trkpt>
      <trkpt lat="51.983583" lon="6.776563">
        <ele>39.825936</ele>
        <time>2020-10-02T18:05:49.627Z</time>
      </trkpt>
      <trkpt lat="51.984181" lon="6.776763">
        <ele>39.648874</ele>
        <time>2020-10-02T18:06:11.546Z</time>
      </trkpt>
      <trkpt lat="51.984599" lon="6.776904">
        <ele>39.525065</ele>
        <time>2020-10-02T18:06:26.899Z</time>
      </trkpt>
      <trkpt lat="51.986168" lon="6.777468">
        <ele>39.266858</ele>
        <time>2020-10-02T18:07:24.899Z</time>
      </trkpt>
      <trkpt lat="51.986803" lon="6.777491">
        <ele>39.216121</ele>
        <time>2020-10-02T18:07:48.587Z</time>
      </trkpt>
      <trkpt lat="51.987494" lon="6.777515">
        <ele>39.450825</ele>
        <time>2020-10-02T18:08:15.055Z</time>
      </trkpt>
      <trkpt lat="51.987542" lon="6.777523">
        <ele>39.474043</ele>
        <time>2020-10-02T18:08:16.926Z</time>
      </trkpt>
      <trkpt lat="51.987553" lon="6.777525">
        <ele>39.479369</ele>
        <time>2020-10-02T18:08:17.357Z</time>
      </trkpt>
      <trkpt lat="51.987613" lon="6.777532">
        <ele>39.508314</ele>
        <time>2020-10-02T18:08:19.683Z</time>
      </trkpt>
      <trkpt lat="51.987651" lon="6.777538">
        <ele>39.526685</ele>
        <time>2020-10-02T18:08:21.144Z</time>
      </trkpt>
      <trkpt lat="51.988045" lon="6.777610">
        <ele>39.717466</ele>
        <time>2020-10-02T18:08:36.665Z</time>
      </trkpt>
      <trkpt lat="51.988646" lon="6.777692">
        <ele>40.007672</ele>
        <time>2020-10-02T18:09:00.759Z</time>
      </trkpt>
      <trkpt lat="51.989794" lon="6.777862">
        <ele>40.652825</ele>
        <time>2020-10-02T18:09:46.514Z</time>
      </trkpt>
      <trkpt lat="51.989818" lon="6.777866">
        <ele>40.666557</ele>
        <time>2020-10-02T18:09:47.767Z</time>
      </trkpt>
      <trkpt lat="51.989821" lon="6.777908">
        <ele>40.681377</ele>
        <time>2020-10-02T18:09:48.405Z</time>
      </trkpt>
      <trkpt lat="51.989945" lon="6.779770">
        <ele>41.197524</ele>
        <time>2020-10-02T18:10:16.900Z</time>
      </trkpt>
      <trkpt lat="51.990012" lon="6.780576">
        <ele>41.320301</ele>
        <time>2020-10-02T18:10:29.016Z</time>
      </trkpt>
      <trkpt lat="51.990030" lon="6.780930">
        <ele>41.373922</ele>
        <time>2020-10-02T18:10:34.237Z</time>
      </trkpt>
      <trkpt lat="51.990003" lon="6.781301">
        <ele>41.430318</ele>
        <time>2020-10-02T18:10:39.718Z</time>
      </trkpt>
      <trkpt lat="51.989887" lon="6.781684">
        <ele>41.494750</ele>
        <time>2020-10-02T18:10:45.989Z</time>
      </trkpt>
      <trkpt lat="51.989087" lon="6.783060">
        <ele>41.546331</ele>
        <time>2020-10-02T18:11:13.913Z</time>
      </trkpt>
      <trkpt lat="51.988954" lon="6.783184">
        <ele>41.548454</ele>
        <time>2020-10-02T18:11:17.422Z</time>
      </trkpt>
      <trkpt lat="51.988510" lon="6.783340">
        <ele>41.554743</ele>
        <time>2020-10-02T18:11:27.596Z</time>
      </trkpt>
      <trkpt lat="51.987610" lon="6.783490">
        <ele>41.598323</ele>
        <time>2020-10-02T18:11:47.927Z</time>
      </trkpt>
      <trkpt lat="51.987240" lon="6.783750">
        <ele>41.621154</ele>
        <time>2020-10-02T18:11:57.106Z</time>
      </trkpt>
      <trkpt lat="51.987120" lon="6.783980">
        <ele>41.631667</ele>
        <time>2020-10-02T18:12:01.384Z</time>
      </trkpt>
      <trkpt lat="51.986304" lon="6.786295">
        <ele>42.515492</ele>
        <time>2020-10-02T18:12:42.839Z</time>
      </trkpt>
      <trkpt lat="51.986190" lon="6.786620">
        <ele>42.685749</ele>
        <time>2020-10-02T18:12:49.176Z</time>
      </trkpt>
      <trkpt lat="51.985405" lon="6.788253">
        <ele>44.120257</ele>
        <time>2020-10-02T18:13:25.155Z</time>
      </trkpt>
      <trkpt lat="51.984722" lon="6.789727">
        <ele>45.531772</ele>
        <time>2020-10-02T18:13:58.182Z</time>
      </trkpt>
      <trkpt lat="51.984604" lon="6.789894">
        <ele>45.680273</ele>
        <time>2020-10-02T18:14:02.692Z</time>
      </trkpt>
      <trkpt lat="51.984757" lon="6.791778">
        <ele>46.790570</ele>
        <time>2020-10-02T18:14:34.301Z</time>
      </trkpt>
      <trkpt lat="51.984926" lon="6.793823">
        <ele>47.354216</ele>
        <time>2020-10-02T18:15:05.603Z</time>
      </trkpt>
      <trkpt lat="51.985432" lon="6.797592">
        <ele>47.798489</ele>
        <time>2020-10-02T18:16:02.188Z</time>
      </trkpt>
      <trkpt lat="51.985810" lon="6.800190">
        <ele>48.200959</ele>
        <time>2020-10-02T18:16:41.078Z</time>
      </trkpt>
      <trkpt lat="51.985856" lon="6.800196">
        <ele>48.213100</ele>
        <time>2020-10-02T18:16:42.560Z</time>
      </trkpt>
      <trkpt lat="51.985810" lon="6.800190">
        <ele>48.225241</ele>
        <time>2020-10-02T18:16:44.752Z</time>
      </trkpt>
      <trkpt lat="51.985836" lon="6.800307">
        <ele>48.245395</ele>
        <time>2020-10-02T18:16:46.463Z</time>
      </trkpt>
      <trkpt lat="51.987770" lon="6.804800">
        <ele>50.623460</ele>
        <time>2020-10-02T18:18:14.171Z</time>
      </trkpt>
      <trkpt lat="51.988030" lon="6.805230">
        <ele>50.835388</ele>
        <time>2020-10-02T18:18:22.640Z</time>
      </trkpt>
      <trkpt lat="51.991400" lon="6.810190">
        <ele>47.190227</ele>
        <time>2020-10-02T18:19:51.221Z</time>
      </trkpt>
      <trkpt lat="51.992550" lon="6.811270">
        <ele>46.465425</ele>
        <time>2020-10-02T18:20:19.354Z</time>
      </trkpt>
      <trkpt lat="51.992805" lon="6.811551">
        <ele>46.346873</ele>
        <time>2020-10-02T18:20:25.768Z</time>
      </trkpt>
      <trkpt lat="51.992850" lon="6.811600">
        <ele>46.326030</ele>
        <time>2020-10-02T18:20:27.076Z</time>
      </trkpt>
      <trkpt lat="51.992763" lon="6.811760">
        <ele>46.275466</ele>
        <time>2020-10-02T18:20:30.887Z</time>
      </trkpt>
      <trkpt lat="51.992590" lon="6.811920">
        <ele>46.198876</ele>
        <time>2020-10-02T18:20:36.252Z</time>
      </trkpt>
      <trkpt lat="51.991900" lon="6.812210">
        <ele>45.923784</ele>
        <time>2020-10-02T18:20:55.929Z</time>
      </trkpt>
      <trkpt lat="51.991580" lon="6.812510">
        <ele>45.771449</ele>
        <time>2020-10-02T18:21:06.109Z</time>
      </trkpt>
      <trkpt lat="51.991350" lon="6.812890">
        <ele>45.636177</ele>
        <time>2020-10-02T18:21:14.922Z</time>
      </trkpt>
      <trkpt lat="51.991150" lon="6.813460">
        <ele>45.469625</ele>
        <time>2020-10-02T18:21:25.985Z</time>
      </trkpt>
      <trkpt lat="51.990560" lon="6.816260">
        <ele>45.216183</ele>
        <time>2020-10-02T18:22:18.464Z</time>
      </trkpt>
      <trkpt lat="51.989780" lon="6.818290">
        <ele>45.621118</ele>
        <time>2020-10-02T18:23:03.708Z</time>
      </trkpt>
      <trkpt lat="51.989706" lon="6.818416">
        <ele>45.671798</ele>
        <time>2020-10-02T18:23:07.092Z</time>
      </trkpt>
      <trkpt lat="51.989686" lon="6.818451">
        <ele>45.685696</ele>
        <time>2020-10-02T18:23:08.060Z</time>
      </trkpt>
      <trkpt lat="51.990706" lon="6.820735">
        <ele>46.635153</ele>
        <time>2020-10-02T18:24:16.577Z</time>
      </trkpt>
      <trkpt lat="51.990718" lon="6.820761">
        <ele>46.647436</ele>
        <time>2020-10-02T18:24:17.229Z</time>
      </trkpt>
      <trkpt lat="51.991239" lon="6.821962">
        <ele>47.216511</ele>
        <time>2020-10-02T18:24:52.537Z</time>
      </trkpt>
      <trkpt lat="51.991245" lon="6.821999">
        <ele>47.240454</ele>
        <time>2020-10-02T18:24:54.136Z</time>
      </trkpt>
      <trkpt lat="51.991707" lon="6.825210">
        <ele>49.297516</ele>
        <time>2020-10-02T18:26:17.859Z</time>
      </trkpt>
      <trkpt lat="51.991722" lon="6.825315">
        <ele>49.363497</ele>
        <time>2020-10-02T18:26:21.191Z</time>
      </trkpt>
      <trkpt lat="51.991717" lon="6.825350">
        <ele>49.385490</ele>
        <time>2020-10-02T18:26:22.393Z</time>
      </trkpt>
      <trkpt lat="51.993301" lon="6.826371">
        <ele>50.782744</ele>
        <time>2020-10-02T18:27:32.222Z</time>
      </trkpt>
      <trkpt lat="51.991717" lon="6.825350">
        <ele>50.682296</ele>
        <time>2020-10-02T18:28:33.178Z</time>
      </trkpt>
      <trkpt lat="51.985740" lon="6.821442">
        <ele>49.935178</ele>
        <time>2020-10-02T18:32:29.947Z</time>
      </trkpt>
      <trkpt lat="51.985655" lon="6.821386">
        <ele>49.921828</ele>
        <time>2020-10-02T18:32:33.203Z</time>
      </trkpt>
      <trkpt lat="51.985459" lon="6.821315">
        <ele>49.892600</ele>
        <time>2020-10-02T18:32:39.172Z</time>
      </trkpt>
      <trkpt lat="51.984995" lon="6.821117">
        <ele>49.721114</ele>
        <time>2020-10-02T18:32:52.842Z</time>
      </trkpt>
      <trkpt lat="51.981187" lon="6.819680">
        <ele>47.098967</ele>
        <time>2020-10-02T18:34:37.701Z</time>
      </trkpt>
      <trkpt lat="51.978387" lon="6.818943">
        <ele>45.869393</ele>
        <time>2020-10-02T18:35:56.001Z</time>
      </trkpt>
      <trkpt lat="51.977810" lon="6.818810">
        <ele>45.934191</ele>
        <time>2020-10-02T18:36:13.633Z</time>
      </trkpt>
      <trkpt lat="51.976938" lon="6.818611">
        <ele>46.295317</ele>
        <time>2020-10-02T18:36:41.183Z</time>
      </trkpt>
      <trkpt lat="51.976540" lon="6.818520">
        <ele>46.460150</ele>
        <time>2020-10-02T18:36:51.293Z</time>
      </trkpt>
      <trkpt lat="51.976410" lon="6.818510">
        <ele>46.513523</ele>
        <time>2020-10-02T18:36:54.521Z</time>
      </trkpt>
      <trkpt lat="51.973822" lon="6.818810">
        <ele>46.991070</ele>
        <time>2020-10-02T18:37:55.390Z</time>
      </trkpt>
      <trkpt lat="51.973560" lon="6.818840">
        <ele>46.931088</ele>
        <time>2020-10-02T18:38:00.781Z</time>
      </trkpt>
      <trkpt lat="51.973447" lon="6.818705">
        <ele>46.899046</ele>
        <time>2020-10-02T18:38:03.620Z</time>
      </trkpt>
      <trkpt lat="51.973433" lon="6.818688">
        <ele>46.895054</ele>
        <time>2020-10-02T18:38:03.972Z</time>
      </trkpt>
      <trkpt lat="51.973342" lon="6.818392">
        <ele>46.848514</ele>
        <time>2020-10-02T18:38:08.008Z</time>
      </trkpt>
      <trkpt lat="51.972806" lon="6.816213">
        <ele>46.578870</ele>
        <time>2020-10-02T18:38:37.379Z</time>
      </trkpt>
      <trkpt lat="51.972725" lon="6.816262">
        <ele>46.564225</ele>
        <time>2020-10-02T18:38:39.398Z</time>
      </trkpt>
      <trkpt lat="51.972123" lon="6.816626">
        <ele>46.455385</ele>
        <time>2020-10-02T18:38:54.507Z</time>
      </trkpt>
      <trkpt lat="51.971697" lon="6.817057">
        <ele>47.084365</ele>
        <time>2020-10-02T18:39:08.249Z</time>
      </trkpt>
      <trkpt lat="51.971257" lon="6.817855">
        <ele>48.002096</ele>
        <time>2020-10-02T18:39:27.401Z</time>
      </trkpt>
      <trkpt lat="51.970945" lon="6.818572">
        <ele>48.754342</ele>
        <time>2020-10-02T18:39:43.992Z</time>
      </trkpt>
      <trkpt lat="51.970707" lon="6.819088">
        <ele>49.254417</ele>
        <time>2020-10-02T18:39:56.342Z</time>
      </trkpt>
      <trkpt lat="51.970601" lon="6.819399">
        <ele>49.514360</ele>
        <time>2020-10-02T18:40:03.037Z</time>
      </trkpt>
      <trkpt lat="51.970469" lon="6.820133">
        <ele>50.073586</ele>
        <time>2020-10-02T18:40:17.206Z</time>
      </trkpt>
      <trkpt lat="51.970297" lon="6.821037">
        <ele>50.765555</ele>
        <time>2020-10-02T18:40:32.863Z</time>
      </trkpt>
      <trkpt lat="51.970168" lon="6.821681">
        <ele>51.018238</ele>
        <time>2020-10-02T18:40:42.801Z</time>
      </trkpt>
      <trkpt lat="51.970031" lon="6.822387">
        <ele>50.812444</ele>
        <time>2020-10-02T18:40:53.071Z</time>
      </trkpt>
      <trkpt lat="51.969470" lon="6.824177">
        <ele>50.246279</ele>
        <time>2020-10-02T18:41:18.877Z</time>
      </trkpt>
      <trkpt lat="51.969445" lon="6.824136">
        <ele>50.223752</ele>
        <time>2020-10-02T18:41:19.605Z</time>
      </trkpt>
      <trkpt lat="51.968300" lon="6.822240">
        <ele>49.186957</ele>
        <time>2020-10-02T18:41:54.082Z</time>
      </trkpt>
      <trkpt lat="51.968280" lon="6.822040">
        <ele>49.110481</ele>
        <time>2020-10-02T18:41:56.842Z</time>
      </trkpt>
      <trkpt lat="51.968070" lon="6.821320">
        <ele>48.831799</ele>
        <time>2020-10-02T18:42:07.725Z</time>
      </trkpt>
      <trkpt lat="51.967460" lon="6.819084">
        <ele>47.924172</ele>
        <time>2020-10-02T18:42:39.658Z</time>
      </trkpt>
      <trkpt lat="51.966642" lon="6.816126">
        <ele>46.602529</ele>
        <time>2020-10-02T18:43:20.765Z</time>
      </trkpt>
      <trkpt lat="51.966555" lon="6.815965">
        <ele>46.573714</ele>
        <time>2020-10-02T18:43:23.757Z</time>
      </trkpt>
      <trkpt lat="51.964406" lon="6.808162">
        <ele>45.936993</ele>
        <time>2020-10-02T18:45:32.164Z</time>
      </trkpt>
      <trkpt lat="51.964370" lon="6.808035">
        <ele>45.976012</ele>
        <time>2020-10-02T18:45:34.303Z</time>
      </trkpt>
      <trkpt lat="51.964316" lon="6.807849">
        <ele>46.033402</ele>
        <time>2020-10-02T18:45:37.423Z</time>
      </trkpt>
      <trkpt lat="51.964343" lon="6.807823">
        <ele>46.047624</ele>
        <time>2020-10-02T18:45:38.065Z</time>
      </trkpt>
      <trkpt lat="51.964369" lon="6.807805">
        <ele>46.060429</ele>
        <time>2020-10-02T18:45:39.588Z</time>
      </trkpt>
      <trkpt lat="51.964343" lon="6.807823">
        <ele>46.073233</ele>
        <time>2020-10-02T18:45:40.346Z</time>
      </trkpt>
      <trkpt lat="51.964316" lon="6.807849">
        <ele>46.087455</ele>
        <time>2020-10-02T18:45:41.038Z</time>
      </trkpt>
      <trkpt lat="51.964260" lon="6.807657">
        <ele>46.146746</ele>
        <time>2020-10-02T18:45:44.239Z</time>
      </trkpt>
      <trkpt lat="51.964072" lon="6.806976">
        <ele>46.355032</ele>
        <time>2020-10-02T18:45:57.153Z</time>
      </trkpt>
      <trkpt lat="51.963863" lon="6.806221">
        <ele>46.589206</ele>
        <time>2020-10-02T18:46:12.702Z</time>
      </trkpt>
      <trkpt lat="51.963698" lon="6.805564">
        <ele>46.805785</ele>
        <time>2020-10-02T18:46:25.452Z</time>
      </trkpt>
      <trkpt lat="51.963716" lon="6.805553">
        <ele>46.815314</ele>
        <time>2020-10-02T18:46:25.869Z</time>
      </trkpt>
      <trkpt lat="51.963631" lon="6.805210">
        <ele>46.928172</ele>
        <time>2020-10-02T18:46:31.603Z</time>
      </trkpt>
      <trkpt lat="51.963620" lon="6.805159">
        <ele>46.944666</ele>
        <time>2020-10-02T18:46:32.531Z</time>
      </trkpt>
      <trkpt lat="51.963532" lon="6.804771">
        <ele>47.070879</ele>
        <time>2020-10-02T18:46:38.875Z</time>
      </trkpt>
      <trkpt lat="51.963369" lon="6.803937">
        <ele>47.337973</ele>
        <time>2020-10-02T18:46:52.789Z</time>
      </trkpt>
      <trkpt lat="51.963329" lon="6.803734">
        <ele>47.403034</ele>
        <time>2020-10-02T18:46:55.637Z</time>
      </trkpt>
      <trkpt lat="51.962128" lon="6.797180">
        <ele>44.913151</ele>
        <time>2020-10-02T18:48:23.430Z</time>
      </trkpt>
      <trkpt lat="51.962115" lon="6.797133">
        <ele>44.911431</ele>
        <time>2020-10-02T18:48:24.170Z</time>
      </trkpt>
      <trkpt lat="51.961194" lon="6.794485">
        <ele>45.151981</ele>
        <time>2020-10-02T18:49:09.540Z</time>
      </trkpt>
      <trkpt lat="51.961182" lon="6.794451">
        <ele>45.163560</ele>
        <time>2020-10-02T18:49:10.394Z</time>
      </trkpt>
      <trkpt lat="51.961163" lon="6.794438">
        <ele>45.173448</ele>
        <time>2020-10-02T18:49:11.080Z</time>
      </trkpt>
      <trkpt lat="51.958642" lon="6.792657">
        <ele>46.322057</ele>
        <time>2020-10-02T18:50:37.646Z</time>
      </trkpt>
      <trkpt lat="51.958001" lon="6.792239">
        <ele>46.195390</ele>
        <time>2020-10-02T18:50:56.867Z</time>
      </trkpt>
      <trkpt lat="51.957772" lon="6.792024">
        <ele>46.101533</ele>
        <time>2020-10-02T18:51:04.197Z</time>
      </trkpt>
      <trkpt lat="51.957116" lon="6.791266">
        <ele>45.815841</ele>
        <time>2020-10-02T18:51:26.149Z</time>
      </trkpt>
      <trkpt lat="51.957127" lon="6.791230">
        <ele>45.807056</ele>
        <time>2020-10-02T18:51:26.932Z</time>
      </trkpt>
      <trkpt lat="51.957116" lon="6.791266">
        <ele>45.798271</ele>
        <time>2020-10-02T18:51:27.951Z</time>
      </trkpt>
      <trkpt lat="51.955715" lon="6.795755">
        <ele>45.314154</ele>
        <time>2020-10-02T18:53:21.471Z</time>
      </trkpt>
      <trkpt lat="51.955692" lon="6.795776">
        <ele>45.311074</ele>
        <time>2020-10-02T18:53:22.460Z</time>
      </trkpt>
      <trkpt lat="51.955649" lon="6.795816">
        <ele>45.305290</ele>
        <time>2020-10-02T18:53:24.293Z</time>
      </trkpt>
      <trkpt lat="51.946236" lon="6.794560">
        <ele>44.363104</ele>
        <time>2020-10-02T18:59:11.050Z</time>
      </trkpt>
      <trkpt lat="51.943970" lon="6.795480">
        <ele>44.576239</ele>
        <time>2020-10-02T19:00:38.787Z</time>
      </trkpt>
      <trkpt lat="51.944069" lon="6.795327">
        <ele>44.586246</ele>
        <time>2020-10-02T19:00:42.342Z</time>
      </trkpt>
      <trkpt lat="51.943970" lon="6.795480">
        <ele>44.596253</ele>
        <time>2020-10-02T19:00:45.199Z</time>
      </trkpt>
      <trkpt lat="51.943900" lon="6.795530">
        <ele>44.601851</ele>
        <time>2020-10-02T19:00:46.979Z</time>
      </trkpt>
      <trkpt lat="51.943550" lon="6.795600">
        <ele>44.627660</ele>
        <time>2020-10-02T19:00:55.061Z</time>
      </trkpt>
      <trkpt lat="51.941769" lon="6.795310">
        <ele>44.741615</ele>
        <time>2020-10-02T19:01:37.199Z</time>
      </trkpt>
      <trkpt lat="51.941417" lon="6.795215">
        <ele>44.762260</ele>
        <time>2020-10-02T19:01:45.889Z</time>
      </trkpt>
      <trkpt lat="51.940928" lon="6.794991">
        <ele>44.725795</ele>
        <time>2020-10-02T19:01:57.336Z</time>
      </trkpt>
      <trkpt lat="51.940859" lon="6.794904">
        <ele>44.698536</ele>
        <time>2020-10-02T19:01:59.274Z</time>
      </trkpt>
      <trkpt lat="51.940685" lon="6.794338">
        <ele>44.576917</ele>
        <time>2020-10-02T19:02:08.028Z</time>
      </trkpt>
      <trkpt lat="51.940505" lon="6.793657">
        <ele>44.434437</ele>
        <time>2020-10-02T19:02:18.344Z</time>
      </trkpt>
      <trkpt lat="51.940461" lon="6.793510">
        <ele>44.403014</ele>
        <time>2020-10-02T19:02:20.506Z</time>
      </trkpt>
      <trkpt lat="51.940373" lon="6.793241">
        <ele>44.344455</ele>
        <time>2020-10-02T19:02:24.320Z</time>
      </trkpt>
      <trkpt lat="51.940246" lon="6.792972">
        <ele>44.279302</ele>
        <time>2020-10-02T19:02:28.663Z</time>
      </trkpt>
      <trkpt lat="51.940060" lon="6.792738">
        <ele>44.217316</ele>
        <time>2020-10-02T19:02:33.496Z</time>
      </trkpt>
      <trkpt lat="51.939805" lon="6.792545">
        <ele>44.199068</ele>
        <time>2020-10-02T19:02:39.160Z</time>
      </trkpt>
      <trkpt lat="51.939397" lon="6.792417">
        <ele>44.172119</ele>
        <time>2020-10-02T19:02:47.903Z</time>
      </trkpt>
      <trkpt lat="51.938481" lon="6.792140">
        <ele>44.111693</ele>
        <time>2020-10-02T19:03:08.813Z</time>
      </trkpt>
      <trkpt lat="51.938334" lon="6.792106">
        <ele>44.121346</ele>
        <time>2020-10-02T19:03:12.489Z</time>
      </trkpt>
      <trkpt lat="51.938382" lon="6.792014">
        <ele>44.174148</ele>
        <time>2020-10-02T19:03:17.642Z</time>
      </trkpt>
      <trkpt lat="51.938334" lon="6.792106">
        <ele>44.226949</ele>
        <time>2020-10-02T19:03:22.794Z</time>
      </trkpt>
      <trkpt lat="51.938195" lon="6.791948">
        <ele>44.347564</ele>
        <time>2020-10-02T19:03:29.662Z</time>
      </trkpt>
      <trkpt lat="51.937819" lon="6.791976">
        <ele>44.615038</ele>
        <time>2020-10-02T19:03:44.787Z</time>
      </trkpt>
      <trkpt lat="51.936259" lon="6.791548">
        <ele>45.582413</ele>
        <time>2020-10-02T19:04:48.814Z</time>
      </trkpt>
      <trkpt lat="51.936042" lon="6.791388">
        <ele>45.677449</ele>
        <time>2020-10-02T19:04:58.228Z</time>
      </trkpt>
      <trkpt lat="51.935975" lon="6.791268">
        <ele>45.717244</ele>
        <time>2020-10-02T19:05:01.999Z</time>
      </trkpt>
      <trkpt lat="51.935558" lon="6.790373">
        <ele>45.993000</ele>
        <time>2020-10-02T19:05:28.417Z</time>
      </trkpt>
      <trkpt lat="51.935401" lon="6.790194">
        <ele>46.069512</ele>
        <time>2020-10-02T19:05:35.611Z</time>
      </trkpt>
      <trkpt lat="51.935407" lon="6.790115">
        <ele>46.089078</ele>
        <time>2020-10-02T19:05:37.465Z</time>
      </trkpt>
      <trkpt lat="51.935495" lon="6.788942">
        <ele>45.956144</ele>
        <time>2020-10-02T19:06:03.690Z</time>
      </trkpt>
      <trkpt lat="51.935563" lon="6.788428">
        <ele>45.890392</ele>
        <time>2020-10-02T19:06:15.188Z</time>
      </trkpt>
      <trkpt lat="51.935847" lon="6.787102">
        <ele>45.727085</ele>
        <time>2020-10-02T19:06:46.908Z</time>
      </trkpt>
      <trkpt lat="51.935945" lon="6.786794">
        <ele>45.711388</ele>
        <time>2020-10-02T19:06:54.756Z</time>
      </trkpt>
      <trkpt lat="51.936163" lon="6.786611">
        <ele>45.693357</ele>
        <time>2020-10-02T19:07:03.937Z</time>
      </trkpt>
      <trkpt lat="51.936388" lon="6.786385">
        <ele>45.673916</ele>
        <time>2020-10-02T19:07:13.608Z</time>
      </trkpt>
      <trkpt lat="51.936411" lon="6.786362">
        <ele>45.671931</ele>
        <time>2020-10-02T19:07:14.830Z</time>
      </trkpt>
      <trkpt lat="51.936773" lon="6.785743">
        <ele>45.633291</ele>
        <time>2020-10-02T19:07:34.204Z</time>
      </trkpt>
      <trkpt lat="51.937701" lon="6.783840">
        <ele>45.311657</ele>
        <time>2020-10-02T19:08:28.792Z</time>
      </trkpt>
      <trkpt lat="51.937770" lon="6.783810">
        <ele>45.292257</ele>
        <time>2020-10-02T19:08:31.280Z</time>
      </trkpt>
      <trkpt lat="51.937661" lon="6.783744">
        <ele>45.260661</ele>
        <time>2020-10-02T19:08:33.814Z</time>
      </trkpt>
      <trkpt lat="51.937520" lon="6.783660">
        <ele>45.219870</ele>
        <time>2020-10-02T19:08:37.124Z</time>
      </trkpt>
      <trkpt lat="51.935570" lon="6.781150">
        <ele>44.208206</ele>
        <time>2020-10-02T19:09:31.225Z</time>
      </trkpt>
      <trkpt lat="51.935490" lon="6.780940">
        <ele>44.138283</ele>
        <time>2020-10-02T19:09:34.551Z</time>
      </trkpt>
      <trkpt lat="51.935480" lon="6.780350">
        <ele>43.971099</ele>
        <time>2020-10-02T19:09:42.367Z</time>
      </trkpt>
      <trkpt lat="51.935670" lon="6.779070">
        <ele>43.598173</ele>
        <time>2020-10-02T19:09:59.679Z</time>
      </trkpt>
      <trkpt lat="51.935680" lon="6.778930">
        <ele>43.558252</ele>
        <time>2020-10-02T19:10:01.391Z</time>
      </trkpt>
      <trkpt lat="51.935670" lon="6.778540">
        <ele>43.510175</ele>
        <time>2020-10-02T19:10:07.002Z</time>
      </trkpt>
      <trkpt lat="51.935343" lon="6.776873">
        <ele>43.447411</ele>
        <time>2020-10-02T19:10:31.751Z</time>
      </trkpt>
      <trkpt lat="51.935330" lon="6.776670">
        <ele>43.440088</ele>
        <time>2020-10-02T19:10:34.483Z</time>
      </trkpt>
      <trkpt lat="51.935368" lon="6.776190">
        <ele>43.422725</ele>
        <time>2020-10-02T19:10:41.913Z</time>
      </trkpt>
      <trkpt lat="51.935573" lon="6.774079">
        <ele>43.420707</ele>
        <time>2020-10-02T19:11:13.347Z</time>
      </trkpt>
      <trkpt lat="51.935532" lon="6.772197">
        <ele>43.143440</ele>
        <time>2020-10-02T19:11:39.341Z</time>
      </trkpt>
      <trkpt lat="51.935505" lon="6.772184">
        <ele>43.128806</ele>
        <time>2020-10-02T19:11:40.139Z</time>
      </trkpt>
      <trkpt lat="51.935532" lon="6.772197">
        <ele>43.114172</ele>
        <time>2020-10-02T19:11:40.645Z</time>
      </trkpt>
      <trkpt lat="51.935820" lon="6.772260">
        <ele>42.963175</ele>
        <time>2020-10-02T19:11:46.778Z</time>
      </trkpt>
      <trkpt lat="51.936029" lon="6.772246">
        <ele>42.854487</ele>
        <time>2020-10-02T19:11:51.137Z</time>
      </trkpt>
      <trkpt lat="51.936245" lon="6.772184">
        <ele>42.740512</ele>
        <time>2020-10-02T19:11:55.713Z</time>
      </trkpt>
      <trkpt lat="51.938020" lon="6.771510">
        <ele>41.741236</ele>
        <time>2020-10-02T19:12:34.072Z</time>
      </trkpt>
      <trkpt lat="51.938761" lon="6.771201">
        <ele>41.555235</ele>
        <time>2020-10-02T19:12:50.846Z</time>
      </trkpt>
      <trkpt lat="51.939509" lon="6.770729">
        <ele>41.739576</ele>
        <time>2020-10-02T19:13:09.749Z</time>
      </trkpt>
      <trkpt lat="51.940942" lon="6.769786">
        <ele>42.524741</ele>
        <time>2020-10-02T19:13:49.894Z</time>
      </trkpt>
      <trkpt lat="51.941129" lon="6.769658">
        <ele>42.673250</ele>
        <time>2020-10-02T19:13:55.370Z</time>
      </trkpt>
      <trkpt lat="51.941999" lon="6.768700">
        <ele>43.224621</ele>
        <time>2020-10-02T19:14:23.193Z</time>
      </trkpt>
      <trkpt lat="51.941967" lon="6.768586">
        <ele>43.227227</ele>
        <time>2020-10-02T19:14:24.740Z</time>
      </trkpt>
      <trkpt lat="51.941999" lon="6.768700">
        <ele>43.229834</ele>
        <time>2020-10-02T19:14:26.786Z</time>
      </trkpt>
      <trkpt lat="51.942524" lon="6.769674">
        <ele>43.256753</ele>
        <time>2020-10-02T19:14:44.573Z</time>
      </trkpt>
      <trkpt lat="51.943040" lon="6.770550">
        <ele>43.148308</ele>
        <time>2020-10-02T19:15:00.039Z</time>
      </trkpt>
      <trkpt lat="51.943198" lon="6.770971">
        <ele>42.967589</ele>
        <time>2020-10-02T19:15:06.160Z</time>
      </trkpt>
      <trkpt lat="51.943440" lon="6.772690">
        <ele>42.321086</ele>
        <time>2020-10-02T19:15:27.822Z</time>
      </trkpt>
      <trkpt lat="51.943570" lon="6.773030">
        <ele>42.200628</ele>
        <time>2020-10-02T19:15:33.013Z</time>
      </trkpt>
      <trkpt lat="51.943810" lon="6.773426">
        <ele>42.171718</ele>
        <time>2020-10-02T19:15:40.302Z</time>
      </trkpt>
      <trkpt lat="51.943812" lon="6.773754">
        <ele>42.154643</ele>
        <time>2020-10-02T19:15:44.592Z</time>
      </trkpt>
      <trkpt lat="51.943790" lon="6.773884">
        <ele>42.147625</ele>
        <time>2020-10-02T19:15:46.535Z</time>
      </trkpt>
      <trkpt lat="51.943759" lon="6.774026">
        <ele>42.139783</ele>
        <time>2020-10-02T19:15:48.501Z</time>
      </trkpt>
      <trkpt lat="51.943764" lon="6.774072">
        <ele>42.137351</ele>
        <time>2020-10-02T19:15:49.125Z</time>
      </trkpt>
      <trkpt lat="51.943774" lon="6.774106">
        <ele>42.135390</ele>
        <time>2020-10-02T19:15:49.629Z</time>
      </trkpt>
      <trkpt lat="51.943838" lon="6.774157">
        <ele>42.129368</ele>
        <time>2020-10-02T19:15:54.569Z</time>
      </trkpt>
      <trkpt lat="51.943848" lon="6.774165">
        <ele>42.128427</ele>
        <time>2020-10-02T19:15:55.370Z</time>
      </trkpt>
      <trkpt lat="51.943920" lon="6.774221">
        <ele>42.121684</ele>
        <time>2020-10-02T19:16:00.875Z</time>
      </trkpt>
      <trkpt lat="51.943969" lon="6.774259">
        <ele>42.117097</ele>
        <time>2020-10-02T19:16:04.687Z</time>
      </trkpt>
      <trkpt lat="51.944026" lon="6.774298">
        <ele>42.111873</ele>
        <time>2020-10-02T19:16:08.977Z</time>
      </trkpt>
      <trkpt lat="51.944119" lon="6.774378">
        <ele>42.102983</ele>
        <time>2020-10-02T19:16:11.280Z</time>
      </trkpt>
      <trkpt lat="51.945130" lon="6.777290">
        <ele>42.508446</ele>
        <time>2020-10-02T19:16:58.958Z</time>
      </trkpt>
      <trkpt lat="51.945220" lon="6.777450">
        <ele>42.549830</ele>
        <time>2020-10-02T19:17:02.125Z</time>
      </trkpt>
      <trkpt lat="51.946460" lon="6.778620">
        <ele>43.395243</ele>
        <time>2020-10-02T19:17:38.057Z</time>
      </trkpt>
      <trkpt lat="51.946560" lon="6.778620">
        <ele>43.458599</ele>
        <time>2020-10-02T19:17:40.547Z</time>
      </trkpt>
      <trkpt lat="51.946635" lon="6.778548">
        <ele>43.513812</ele>
        <time>2020-10-02T19:17:42.757Z</time>
      </trkpt>
      <trkpt lat="51.946730" lon="6.778500">
        <ele>43.576851</ele>
        <time>2020-10-02T19:17:45.311Z</time>
      </trkpt>
      <trkpt lat="51.946970" lon="6.778500">
        <ele>43.728906</ele>
        <time>2020-10-02T19:17:51.170Z</time>
      </trkpt>
      <trkpt lat="51.947110" lon="6.778600">
        <ele>43.781005</ele>
        <time>2020-10-02T19:17:54.946Z</time>
      </trkpt>
      <trkpt lat="51.947270" lon="6.778870">
        <ele>43.840685</ele>
        <time>2020-10-02T19:18:00.508Z</time>
      </trkpt>
      <trkpt lat="51.947420" lon="6.779300">
        <ele>43.919415</ele>
        <time>2020-10-02T19:18:07.752Z</time>
      </trkpt>
      <trkpt lat="51.947540" lon="6.780400">
        <ele>44.097416</ele>
        <time>2020-10-02T19:18:23.516Z</time>
      </trkpt>
      <trkpt lat="51.947690" lon="6.780790">
        <ele>44.170665</ele>
        <time>2020-10-02T19:18:29.478Z</time>
      </trkpt>
      <trkpt lat="51.948230" lon="6.781060">
        <ele>44.484518</ele>
        <time>2020-10-02T19:18:42.472Z</time>
      </trkpt>
      <trkpt lat="51.948868" lon="6.781740">
        <ele>45.007552</ele>
        <time>2020-10-02T19:19:01.659Z</time>
      </trkpt>
      <trkpt lat="51.948899" lon="6.781773">
        <ele>45.032956</ele>
        <time>2020-10-02T19:19:02.426Z</time>
      </trkpt>
      <trkpt lat="51.949315" lon="6.780555">
        <ele>45.587286</ele>
        <time>2020-10-02T19:19:26.846Z</time>
      </trkpt>
      <trkpt lat="51.949776" lon="6.779282">
        <ele>46.089583</ele>
        <time>2020-10-02T19:19:51.278Z</time>
      </trkpt>
      <trkpt lat="51.949843" lon="6.779104">
        <ele>46.160538</ele>
        <time>2020-10-02T19:19:54.558Z</time>
      </trkpt>
      <trkpt lat="51.949908" lon="6.778927">
        <ele>46.230632</ele>
        <time>2020-10-02T19:19:57.848Z</time>
      </trkpt>
      <trkpt lat="51.950212" lon="6.778075">
        <ele>46.211086</ele>
        <time>2020-10-02T19:20:10.986Z</time>
      </trkpt>
      <trkpt lat="51.950820" lon="6.777160">
        <ele>45.373921</ele>
        <time>2020-10-02T19:20:27.536Z</time>
      </trkpt>
      <trkpt lat="51.951120" lon="6.776800">
        <ele>44.997236</ele>
        <time>2020-10-02T19:20:34.565Z</time>
      </trkpt>
      <trkpt lat="51.952644" lon="6.775170">
        <ele>43.507504</ele>
        <time>2020-10-02T19:21:11.652Z</time>
      </trkpt>
      <trkpt lat="51.953671" lon="6.774153">
        <ele>43.257223</ele>
        <time>2020-10-02T19:21:39.311Z</time>
      </trkpt>
      <trkpt lat="51.955517" lon="6.772222">
        <ele>43.382193</ele>
        <time>2020-10-02T19:22:31.725Z</time>
      </trkpt>
      <trkpt lat="51.956380" lon="6.771320">
        <ele>43.338227</ele>
        <time>2020-10-02T19:22:55.100Z</time>
      </trkpt>
      <trkpt lat="51.957470" lon="6.770544">
        <ele>43.113525</ele>
        <time>2020-10-02T19:23:21.705Z</time>
      </trkpt>
      <trkpt lat="51.958040" lon="6.770160">
        <ele>42.936606</ele>
        <time>2020-10-02T19:23:39.349Z</time>
      </trkpt>
      <trkpt lat="51.959050" lon="6.769390">
        <ele>42.589765</ele>
        <time>2020-10-02T19:24:10.808Z</time>
      </trkpt>
      <trkpt lat="51.959350" lon="6.768940">
        <ele>42.505358</ele>
        <time>2020-10-02T19:24:21.935Z</time>
      </trkpt>
      <trkpt lat="51.959760" lon="6.768127">
        <ele>42.428949</ele>
        <time>2020-10-02T19:24:39.741Z</time>
      </trkpt>
      <trkpt lat="51.960327" lon="6.767005">
        <ele>42.323412</ele>
        <time>2020-10-02T19:25:06.185Z</time>
      </trkpt>
      <trkpt lat="51.960890" lon="6.765890">
        <ele>42.784580</ele>
        <time>2020-10-02T19:25:35.403Z</time>
      </trkpt>
      <trkpt lat="51.961122" lon="6.765444">
        <ele>42.981071</ele>
        <time>2020-10-02T19:25:46.846Z</time>
      </trkpt>
      <trkpt lat="51.961300" lon="6.765101">
        <ele>43.132036</ele>
        <time>2020-10-02T19:25:55.247Z</time>
      </trkpt>
      <trkpt lat="51.961375" lon="6.764958">
        <ele>43.195253</ele>
        <time>2020-10-02T19:25:58.843Z</time>
      </trkpt>
      <trkpt lat="51.961490" lon="6.764739">
        <ele>43.292118</ele>
        <time>2020-10-02T19:26:04.162Z</time>
      </trkpt>
      <trkpt lat="51.961685" lon="6.764366">
        <ele>43.350014</ele>
        <time>2020-10-02T19:26:13.249Z</time>
      </trkpt>
      <trkpt lat="51.962069" lon="6.763636">
        <ele>43.450554</ele>
        <time>2020-10-02T19:26:31.054Z</time>
      </trkpt>
      <trkpt lat="51.962286" lon="6.763221">
        <ele>43.507566</ele>
        <time>2020-10-02T19:26:40.580Z</time>
      </trkpt>
      <trkpt lat="51.962300" lon="6.763176">
        <ele>43.512846</ele>
        <time>2020-10-02T19:26:41.968Z</time>
      </trkpt>
      <trkpt lat="51.962286" lon="6.763221">
        <ele>43.518127</ele>
        <time>2020-10-02T19:26:42.924Z</time>
      </trkpt>
      <trkpt lat="51.964071" lon="6.767415">
        <ele>44.229444</ele>
        <time>2020-10-02T19:28:44.149Z</time>
      </trkpt>
      <trkpt lat="51.964089" lon="6.767456">
        <ele>44.229911</ele>
        <time>2020-10-02T19:28:45.575Z</time>
      </trkpt>
      <trkpt lat="51.966498" lon="6.773007">
        <ele>43.230427</ele>
        <time>2020-10-02T19:31:18.975Z</time>
      </trkpt>
      <trkpt lat="51.967098" lon="6.774421">
        <ele>41.870902</ele>
        <time>2020-10-02T19:31:37.815Z</time>
      </trkpt>
      <trkpt lat="51.967175" lon="6.774492">
        <ele>41.730965</ele>
        <time>2020-10-02T19:31:39.562Z</time>
      </trkpt>
      <trkpt lat="51.967232" lon="6.774513">
        <ele>41.638604</ele>
        <time>2020-10-02T19:31:40.397Z</time>
      </trkpt>
      <trkpt lat="51.967248" lon="6.774655">
        <ele>41.498065</ele>
        <time>2020-10-02T19:31:42.149Z</time>
      </trkpt>
      <trkpt lat="51.967272" lon="6.774880">
        <ele>41.275755</ele>
        <time>2020-10-02T19:31:45.153Z</time>
      </trkpt>
      <trkpt lat="51.967348" lon="6.775278">
        <ele>40.870094</ele>
        <time>2020-10-02T19:31:49.371Z</time>
      </trkpt>
      <trkpt lat="51.967413" lon="6.775503">
        <ele>40.628158</ele>
        <time>2020-10-02T19:31:52.868Z</time>
      </trkpt>
      <trkpt lat="51.968289" lon="6.777941">
        <ele>40.451207</ele>
        <time>2020-10-02T19:32:34.936Z</time>
      </trkpt>
      <trkpt lat="51.968450" lon="6.778953">
        <ele>40.312003</ele>
        <time>2020-10-02T19:32:49.525Z</time>
      </trkpt>
      <trkpt lat="51.968421" lon="6.780094">
        <ele>39.707963</ele>
        <time>2020-10-02T19:33:03.661Z</time>
      </trkpt>
      <trkpt lat="51.968078" lon="6.782362">
        <ele>38.994790</ele>
        <time>2020-10-02T19:33:30.229Z</time>
      </trkpt>
      <trkpt lat="51.967977" lon="6.782767">
        <ele>38.994790</ele>
        <time>2020-10-02T19:33:35.427Z</time>
      </trkpt>
      <trkpt lat="51.967514" lon="6.783949">
        <ele>38.994790</ele>
        <time>2020-10-02T19:33:52.790Z</time>
      </trkpt>
      <trkpt lat="51.967440" lon="6.784290">
        <ele>38.994790</ele>
        <time>2020-10-02T19:33:57.663Z</time>
      </trkpt>
      <trkpt lat="51.967385" lon="6.784568">
        <ele>38.994790</ele>
        <time>2020-10-02T19:34:01.406Z</time>
      </trkpt>
      <trkpt lat="51.967182" lon="6.784437">
        <ele>38.994790</ele>
        <time>2020-10-02T19:34:16.555Z</time>
      </trkpt>
    </trkseg>
  </trk>
</gpx>